Time;durP1;ratioP1;P1;durP2;ratioP2;P2;SDS_P1;SDS_P2;PMS_P1;PMS_P2;Temp;Humidity;BMP_temperature;BMP_pressure;BME280_temperature;BME280_humidity;BME280_pressure;Samples;Min_cycle;Max_cycle;Signal;HPM_P1;HPM_P2
2022/04/23 00:01:08;;;;;;;22.27;14.00;;;;;;;9.64;74.46;100404.31;5072044;28;20433;-84
2022/04/23 00:03:33;;;;;;;19.63;12.30;;;;;;;9.69;73.82;100414.59;5072805;28;20031;-84
2022/04/23 00:05:58;;;;;;;20.57;13.97;;;;;;;9.61;74.67;100414.75;5057482;28;20428;-83
2022/04/23 00:08:24;;;;;;;21.73;13.50;;;;;;;9.63;73.65;100402.63;5052180;28;20024;-84
2022/04/23 00:10:49;;;;;;;20.90;13.43;;;;;;;9.61;74.25;100404.38;5052440;28;20032;-84
2022/04/23 00:13:14;;;;;;;19.70;12.00;;;;;;;9.59;73.81;100411.31;5052703;28;20107;-83
2022/04/23 00:15:39;;;;;;;21.27;12.87;;;;;;;9.55;74.71;100407.09;5054309;28;20032;-83
2022/04/23 00:18:07;;;;;;;22.23;13.73;;;;;;;9.49;75.34;100410.66;5056580;28;20047;-84
2022/04/23 00:20:33;;;;;;;20.13;12.52;;;;;;;9.51;74.65;100405.44;5056646;28;20028;-84
2022/04/23 00:22:59;;;;;;;19.42;12.07;;;;;;;9.51;74.15;100410.59;5055518;28;20120;-84
2022/04/23 00:25:25;;;;;;;19.95;12.40;;;;;;;9.48;74.69;100403.75;5056748;28;20032;-84
2022/04/23 00:27:50;;;;;;;21.73;13.57;;;;;;;9.46;75.54;100407.25;5056328;28;20025;-84
2022/04/23 00:30:16;;;;;;;19.40;11.90;;;;;;;9.46;75.33;100408.09;5055807;28;20540;-84
2022/04/23 00:32:41;;;;;;;20.70;12.47;;;;;;;9.43;74.85;100402.97;5056256;28;20032;-83
2022/04/23 00:35:06;;;;;;;21.10;12.97;;;;;;;9.38;75.72;100405.63;5063352;28;20036;-84
2022/04/23 00:37:32;;;;;;;21.53;14.43;;;;;;;9.34;76.33;100401.41;5075642;28;20047;-84
2022/04/23 00:39:57;;;;;;;22.20;14.73;;;;;;;9.31;76.38;100409.22;5076029;28;20047;-84
2022/04/23 00:42:22;;;;;;;22.17;13.73;;;;;;;9.32;76.19;100404.88;5076276;28;20023;-84
2022/04/23 00:44:47;;;;;;;22.80;14.83;;;;;;;9.26;76.48;100403.25;5075125;28;20021;-84
2022/04/23 00:47:13;;;;;;;22.13;15.45;;;;;;;9.22;77.02;100407.63;5076369;28;20059;-84
2022/04/23 00:49:38;;;;;;;23.33;14.90;;;;;;;9.24;76.82;100407.59;5075024;28;20025;-82
2022/04/23 00:52:04;;;;;;;21.70;13.67;;;;;;;9.24;76.04;100400.69;5076282;28;20029;-83
2022/04/23 00:54:30;;;;;;;19.83;12.07;;;;;;;9.25;76.02;100406.72;5076260;28;20028;-83
2022/04/23 00:56:56;;;;;;;21.93;14.37;;;;;;;9.20;76.83;100405.97;5075123;28;20100;-83
2022/04/23 00:59:27;;;;;;;23.15;14.00;;;;;;;9.20;77.13;100405.97;5072320;28;20033;-83
2022/04/23 01:01:53;;;;;;;23.20;14.77;;;;;;;9.18;77.02;100403.38;5055734;28;20032;-83
2022/04/23 01:04:18;;;;;;;21.40;14.30;;;;;;;9.18;76.38;100405.97;5071621;28;20040;-83
2022/04/23 01:06:44;;;;;;;23.13;14.27;;;;;;;9.16;77.39;100409.47;5075802;28;20020;-81
2022/04/23 01:09:09;;;;;;;22.43;15.03;;;;;;;9.16;77.11;100404.28;5074108;28;20009;-81
2022/04/23 01:11:37;;;;;;;22.08;13.82;;;;;;;9.14;77.27;100396.56;5075215;28;20028;-82
2022/04/23 01:14:03;;;;;;;22.00;14.27;;;;;;;9.12;77.31;100406.09;5075631;28;20545;-82
2022/04/23 01:16:29;;;;;;;24.50;16.33;;;;;;;9.09;77.40;100401.81;5058596;28;20033;-82
2022/04/23 01:18:55;;;;;;;22.60;15.30;;;;;;;9.10;76.96;100405.25;5054681;28;20021;-83
2022/04/23 01:21:20;;;;;;;23.77;16.83;;;;;;;9.05;78.44;100407.91;5055877;28;20029;-82
2022/04/23 01:23:47;;;;;;;22.53;15.47;;;;;;;9.08;77.51;100407.00;5055228;28;20025;-82
2022/04/23 01:26:14;;;;;;;22.35;14.52;;;;;;;9.06;77.81;100406.19;5054507;28;20017;-82
2022/04/23 01:28:40;;;;;;;23.10;15.80;;;;;;;9.02;77.57;100399.34;5055137;28;20025;-82
2022/04/23 01:31:06;;;;;;;22.67;14.80;;;;;;;9.04;77.71;100406.19;5055326;28;20029;-82
2022/04/23 01:33:35;;;;;;;23.05;15.43;;;;;;;8.99;78.31;100405.44;5064806;28;20036;-82
2022/04/23 01:36:00;;;;;;;23.77;16.42;;;;;;;8.99;78.18;100409.75;5075187;28;20021;-83
2022/04/23 01:38:25;;;;;;;22.80;15.77;;;;;;;9.01;78.02;100413.16;5075188;28;20048;-83
2022/04/23 01:40:50;;;;;;;22.00;14.25;;;;;;;8.99;78.20;100405.44;5074381;28;20020;-82
2022/04/23 01:43:16;;;;;;;25.20;17.43;;;;;;;8.92;79.00;100407.25;5075192;28;20043;-83
2022/04/23 01:45:41;;;;;;;25.73;17.20;;;;;;;8.93;78.46;100408.09;5075155;28;20020;-83
2022/04/23 01:48:07;;;;;;;22.92;15.80;;;;;;;8.93;78.08;100413.28;5074399;28;20403;-83
2022/04/23 01:50:34;;;;;;;22.10;14.80;;;;;;;8.91;78.32;100413.31;5075382;28;20091;-83
2022/04/23 01:52:59;;;;;;;22.92;14.80;;;;;;;8.88;79.45;100415.94;5074075;28;20354;-84
2022/04/23 01:55:30;;;;;;;25.37;17.70;;;;;;;8.91;78.42;100415.03;5075147;28;20032;-83
2022/04/23 01:57:55;;;;;;;25.23;17.30;;;;;;;8.86;78.84;100416.84;5067442;28;20040;-83
2022/04/23 02:00:21;;;;;;;25.90;17.60;;;;;;;8.86;79.12;100416.84;5054009;28;20017;-83
2022/04/23 02:02:46;;;;;;;24.80;16.67;;;;;;;8.83;78.88;100412.59;5054446;28;20029;-83
2022/04/23 02:05:12;;;;;;;25.93;18.50;;;;;;;8.79;79.77;100421.25;5055010;28;20187;-83
2022/04/23 02:07:42;;;;;;;25.52;18.92;;;;;;;8.79;79.25;100419.50;5053532;28;20029;-83
2022/04/23 02:10:11;;;;;;;25.02;17.35;;;;;;;8.79;79.14;100416.91;5054807;28;20057;-83
2022/04/23 02:12:38;;;;;;;29.65;21.02;;;;;;;8.74;80.37;100413.56;5054643;28;20111;-83
2022/04/23 02:15:07;;;;;;;28.00;20.17;;;;;;;8.74;79.81;100418.75;5053850;28;20033;-83
2022/04/23 02:17:34;;;;;;;28.27;20.63;;;;;;;8.74;80.32;100415.28;5054553;28;20029;-83
2022/04/23 02:20:13;;;;;;;25.38;17.80;;;;;;;8.75;80.23;100415.28;5054314;28;20056;-82
2022/04/23 02:22:39;;;;;;;28.38;19.40;;;;;;;8.73;80.49;100417.03;5053399;28;20025;-82
2022/04/23 02:25:05;;;;;;;29.53;21.40;;;;;;;8.73;80.57;100417.03;5054243;28;20028;-81
2022/04/23 02:27:41;;;;;;;29.52;21.67;;;;;;;8.73;80.89;100411.84;5073978;28;20431;-82
2022/04/23 02:30:07;;;;;;;30.80;22.27;;;;;;;8.74;81.10;100412.69;5073660;28;20082;-82
2022/04/23 02:32:32;;;;;;;29.13;22.53;;;;;;;8.73;81.24;100410.97;5074233;28;20032;-82
2022/04/23 02:34:58;;;;;;;28.97;20.80;;;;;;;8.76;80.50;100414.41;5074118;28;20427;-82
2022/04/23 02:37:26;;;;;;;29.90;22.60;;;;;;;8.73;81.29;100411.84;5072452;28;20040;-82
2022/04/23 02:39:52;;;;;;;30.65;23.10;;;;;;;8.76;81.38;100421.28;5073815;28;20025;-82
2022/04/23 02:42:17;;;;;;;28.50;21.33;;;;;;;8.86;80.10;100414.25;5072919;28;20066;-82
2022/04/23 02:44:45;;;;;;;30.40;23.10;;;;;;;8.73;81.42;100419.63;5073605;28;20028;-83
2022/04/23 02:47:10;;;;;;;30.02;22.38;;;;;;;8.74;81.25;100418.75;5074022;28;20049;-82
2022/04/23 02:49:35;;;;;;;31.13;22.47;;;;;;;8.75;81.27;100422.16;5073077;28;20079;-82
2022/04/23 02:52:01;;;;;;;29.70;22.07;;;;;;;8.74;81.21;100417.88;5073501;28;20032;-82
2022/04/23 02:54:26;;;;;;;30.50;22.57;;;;;;;8.72;81.61;100419.66;5073919;28;20077;-82
2022/04/23 02:56:54;;;;;;;28.10;20.43;;;;;;;8.72;81.53;100410.13;5071022;28;20040;-82
2022/04/23 02:59:19;;;;;;;30.52;22.05;;;;;;;8.68;81.94;100411.03;5073830;28;20488;-82
2022/04/23 03:01:44;;;;;;;31.27;23.20;;;;;;;8.63;82.07;100410.28;5073635;28;20095;-82
2022/04/23 03:04:10;;;;;;;30.20;22.13;;;;;;;8.64;81.81;100407.66;5072903;28;20036;-82
2022/04/23 03:06:36;;;;;;;30.58;22.80;;;;;;;8.62;81.93;100400.81;5073651;28;20073;-82
2022/04/23 03:09:03;;;;;;;30.83;22.92;;;;;;;8.59;82.31;100406.00;5073415;28;20024;-82
2022/04/23 03:11:30;;;;;;;32.65;23.85;;;;;;;8.57;82.53;100407.75;5072689;28;20177;-82
2022/04/23 03:13:56;;;;;;;31.95;24.00;;;;;;;8.54;82.62;100397.47;5073321;28;20025;-82
2022/04/23 03:16:21;;;;;;;29.87;21.80;;;;;;;8.56;82.16;100400.88;5073103;28;20507;-82
2022/04/23 03:18:46;;;;;;;30.87;23.17;;;;;;;8.53;82.21;100403.53;5072355;28;20495;-81
2022/04/23 03:21:12;;;;;;;32.27;23.70;;;;;;;8.47;82.83;100405.31;5073312;28;20030;-82
2022/04/23 03:23:39;;;;;;;31.52;23.77;;;;;;;8.46;82.85;100400.97;5072228;28;20044;-81
2022/04/23 03:26:05;;;;;;;31.02;23.77;;;;;;;8.44;82.82;100394.13;5054279;28;20080;-82
2022/04/23 03:28:31;;;;;;;30.50;22.73;;;;;;;8.45;82.45;100393.25;5073325;28;20436;-81
2022/04/23 03:30:56;;;;;;;33.33;24.92;;;;;;;8.37;83.46;100401.09;5072948;28;20430;-81
2022/04/23 03:33:21;;;;;;;32.70;24.47;;;;;;;8.37;82.98;100393.34;5072443;28;20017;-82
2022/04/23 03:35:47;;;;;;;33.63;25.40;;;;;;;8.34;83.52;100396.84;5072532;28;20027;-82
2022/04/23 03:38:12;;;;;;;32.33;24.00;;;;;;;8.35;83.25;100389.91;5072816;28;20044;-82
2022/04/23 03:40:38;;;;;;;33.53;25.17;;;;;;;8.31;83.51;100389.09;5071961;28;20044;-81
2022/04/23 03:43:03;;;;;;;31.10;23.57;;;;;;;8.32;83.39;100396.00;5073165;28;20075;-82
2022/04/23 03:45:31;;;;;;;30.30;23.00;;;;;;;8.31;83.75;100393.44;5072130;28;20032;-82
2022/04/23 03:47:56;;;;;;;33.58;24.95;;;;;;;8.28;83.83;100391.72;5072466;28;20082;-82
2022/04/23 03:50:21;;;;;;;30.17;21.97;;;;;;;8.31;82.95;100391.69;5072765;28;20054;-81
2022/04/23 03:52:47;;;;;;;28.80;20.92;;;;;;;8.29;83.35;100387.44;5071907;28;20029;-82
2022/04/23 03:55:13;;;;;;;29.73;22.55;;;;;;;8.28;83.11;100383.13;5055835;28;20102;-82
2022/04/23 03:57:49;;;;;;;32.70;24.55;;;;;;;8.24;84.44;100387.50;5052610;28;20074;-82
2022/04/23 04:00:16;;;;;;;32.00;24.27;;;;;;;8.27;83.92;100376.25;5052014;28;20104;-82
2022/04/23 04:02:44;;;;;;;34.25;25.60;;;;;;;8.23;84.55;100390.94;5052340;28;20431;-82
2022/04/23 04:05:10;;;;;;;35.08;26.70;;;;;;;8.24;84.42;100377.16;5052600;28;20050;-82
2022/04/23 04:07:41;;;;;;;32.38;23.70;;;;;;;8.25;84.38;100378.00;5051836;28;20171;-82
2022/04/23 04:10:06;;;;;;;31.38;23.52;;;;;;;8.25;84.26;100380.56;5052538;28;20489;-82
2022/04/23 04:12:32;;;;;;;31.73;23.93;;;;;;;8.25;83.86;100378.00;5052862;28;20086;-82
2022/04/23 04:14:57;;;;;;;30.40;22.33;;;;;;;8.24;83.56;100377.16;5051581;28;20171;-82
2022/04/23 04:17:23;;;;;;;32.23;24.23;;;;;;;8.25;84.11;100375.41;5052559;28;20025;-82
2022/04/23 04:19:49;;;;;;;32.87;24.93;;;;;;;8.25;83.98;100375.41;5052285;28;20057;-82
2022/04/23 04:22:14;;;;;;;30.27;22.57;;;;;;;8.25;84.44;100376.28;5067906;28;20087;-83
2022/04/23 04:24:43;;;;;;;31.17;23.20;;;;;;;8.25;84.30;100373.69;5072301;28;20106;-82
2022/04/23 04:27:08;;;;;;;33.40;25.25;;;;;;;8.23;84.70;100370.28;5072598;28;20460;-82
2022/04/23 04:29:33;;;;;;;32.23;24.23;;;;;;;8.25;84.35;100367.66;5071913;28;20042;-82
2022/04/23 04:31:58;;;;;;;33.50;24.87;;;;;;;8.23;84.74;100361.63;5072317;28;20044;-82
2022/04/23 04:34:29;;;;;;;30.83;22.63;;;;;;;8.26;84.06;100362.47;5072431;28;20020;-82
2022/04/23 04:37:06;;;;;;;31.10;22.95;;;;;;;8.28;84.15;100370.19;5069514;28;20392;-82
2022/04/23 04:39:32;;;;;;;29.92;21.88;;;;;;;8.26;83.92;100370.25;5069554;28;20372;-82
2022/04/23 04:41:57;;;;;;;29.67;21.63;;;;;;;8.29;83.94;100367.59;5071278;28;20024;-84
2022/04/23 04:44:23;;;;;;;31.83;23.63;;;;;;;8.29;84.63;100369.31;5072446;28;20024;-84
2022/04/23 04:46:51;;;;;;;32.80;23.93;;;;;;;8.28;85.08;100372.78;5072037;28;20025;-83
2022/04/23 04:49:16;;;;;;;35.75;27.55;;;;;;;8.33;84.84;100369.25;5063137;28;20017;-84
2022/04/23 04:51:41;;;;;;;34.70;26.27;;;;;;;8.31;85.12;100377.94;5053304;28;20047;-83
2022/04/23 04:54:10;;;;;;;31.90;23.70;;;;;;;8.33;84.56;100373.59;5052447;28;20028;-83
2022/04/23 04:56:35;;;;;;;33.55;25.33;;;;;;;8.31;85.42;100371.00;5061268;28;20021;-83
2022/04/23 04:59:01;;;;;;;33.50;24.47;;;;;;;8.35;84.83;100379.56;5071973;28;20387;-83
2022/04/23 05:01:26;;;;;;;34.43;25.90;;;;;;;8.32;85.25;100375.31;5074092;28;20028;-83
2022/04/23 05:03:53;;;;;;;32.17;23.73;;;;;;;8.40;84.77;100382.97;5073495;28;20043;-83
2022/04/23 05:06:19;;;;;;;29.75;22.50;;;;;;;8.40;84.53;100395.03;5076106;28;20028;-83
2022/04/23 05:08:44;;;;;;;32.13;24.13;;;;;;;8.41;84.58;100387.28;5075447;28;20026;-83
2022/04/23 05:11:10;;;;;;;31.40;23.17;;;;;;;8.43;84.34;100398.44;5074998;28;20029;-83
2022/04/23 05:13:35;;;;;;;29.07;20.87;;;;;;;8.45;83.99;100390.66;5075926;28;20104;-83
2022/04/23 05:16:01;;;;;;;30.67;22.43;;;;;;;8.48;83.84;100396.66;5075514;28;20346;-83
2022/04/23 05:18:26;;;;;;;32.85;25.20;;;;;;;8.47;84.75;100389.78;5074794;28;20415;-84
2022/04/23 05:20:51;;;;;;;33.30;26.43;;;;;;;8.53;84.35;100394.03;5073819;28;20070;-83
2022/04/23 05:23:16;;;;;;;32.77;24.17;;;;;;;8.52;84.50;100394.91;5075704;28;20071;-83
2022/04/23 05:25:42;;;;;;;30.25;22.67;;;;;;;8.55;83.99;100387.09;5056206;28;20024;-83
2022/04/23 05:28:07;;;;;;;34.63;25.57;;;;;;;8.57;84.46;100389.66;5055629;28;20032;-84
2022/04/23 05:30:37;;;;;;;32.87;25.10;;;;;;;8.61;84.36;100381.81;5055526;28;20029;-84
2022/04/23 05:33:03;;;;;;;34.33;24.90;;;;;;;8.62;84.21;100388.72;5054635;28;20381;-84
2022/04/23 05:35:28;;;;;;;31.77;24.30;;;;;;;8.66;83.76;100381.78;5055301;28;20032;-83
2022/04/23 05:37:53;;;;;;;33.93;25.73;;;;;;;8.71;84.26;100387.72;5054442;28;20041;-83
2022/04/23 05:40:19;;;;;;;33.00;25.43;;;;;;;8.75;83.80;100380.78;5055178;28;20033;-83
2022/04/23 05:42:44;;;;;;;32.80;24.83;;;;;;;8.80;83.65;100390.16;5056153;28;20025;-82
2022/04/23 05:45:09;;;;;;;32.20;24.07;;;;;;;8.84;83.60;100382.38;5054345;28;20025;-86
2022/04/23 05:47:35;;;;;;;30.73;23.30;;;;;;;8.89;83.16;100378.84;5055028;28;20035;-82
2022/04/23 05:50:00;;;;;;;28.87;21.47;;;;;;;8.94;83.35;100389.09;5054732;28;20492;-83
2022/04/23 05:52:25;;;;;;;32.38;24.65;;;;;;;9.01;82.85;100390.72;5054530;28;20033;-81
2022/04/23 05:54:50;;;;;;;32.27;24.27;;;;;;;9.04;82.78;100382.91;5065649;28;20025;-81
2022/04/23 05:57:16;;;;;;;32.23;24.07;;;;;;;9.10;82.53;100390.59;5074774;28;20082;-81
2022/04/23 05:59:41;;;;;;;32.45;23.88;;;;;;;9.15;82.67;100385.31;5073949;28;20028;-86
2022/04/23 06:02:07;;;;;;;33.13;25.60;;;;;;;9.16;82.55;100376.69;5074975;28;20066;-83
2022/04/23 06:04:32;;;;;;;34.33;25.47;;;;;;;9.24;82.29;100382.56;5074659;28;20059;-83
2022/04/23 06:06:58;;;;;;;30.90;23.88;;;;;;;9.30;82.32;100373.84;5073909;28;20302;-82
2022/04/23 06:09:23;;;;;;;30.27;22.30;;;;;;;9.37;81.80;100383.22;5074725;28;20129;-82
2022/04/23 06:11:48;;;;;;;29.83;22.83;;;;;;;9.42;81.70;100375.34;5073762;28;20020;-82
2022/04/23 06:14:13;;;;;;;31.67;24.17;;;;;;;9.49;81.55;100373.50;5073424;28;20029;-83
2022/04/23 06:16:39;;;;;;;32.07;24.73;;;;;;;9.54;81.16;100377.72;5074222;28;20028;-82
2022/04/23 06:19:05;;;;;;;31.43;23.70;;;;;;;9.62;80.90;100380.19;5073060;28;20035;-83
2022/04/23 06:21:30;;;;;;;32.00;24.60;;;;;;;9.68;80.50;100376.63;5073677;28;20024;-83
2022/04/23 06:23:55;;;;;;;31.53;24.83;;;;;;;9.81;79.96;100367.72;5054689;28;20906;-83
2022/04/23 06:26:20;;;;;;;33.03;26.30;;;;;;;9.82;79.79;100374.63;5054632;28;20031;-82
2022/04/23 06:28:46;;;;;;;32.93;25.10;;;;;;;9.88;79.83;100373.66;5054626;28;20025;-82
2022/04/23 06:31:11;;;;;;;33.33;25.77;;;;;;;9.95;79.18;100372.63;5054231;28;20090;-82
2022/04/23 06:33:36;;;;;;;31.50;24.57;;;;;;;10.00;79.21;100383.75;5054387;28;20381;-81
2022/04/23 06:36:02;;;;;;;30.60;24.03;;;;;;;10.07;79.37;100374.13;5053569;28;20017;-82
2022/04/23 06:38:27;;;;;;;31.10;24.47;;;;;;;10.17;78.74;100377.38;5053916;28;20045;-82
2022/04/23 06:40:52;;;;;;;32.10;25.07;;;;;;;10.25;78.51;100372.84;5053939;28;20029;-82
2022/04/23 06:43:17;;;;;;;31.53;24.10;;;;;;;10.31;78.51;100379.66;5053410;28;20377;-81
2022/04/23 06:45:43;;;;;;;30.53;23.87;;;;;;;10.36;77.76;100375.22;5053775;28;20075;-82
2022/04/23 06:48:08;;;;;;;33.67;25.97;;;;;;;10.41;76.88;100381.22;5053866;28;20512;-82
2022/04/23 06:50:35;;;;;;;29.67;23.73;;;;;;;10.47;77.25;100375.03;5053418;28;20492;-81
2022/04/23 06:53:01;;;;;;;;;;;;;;;10.57;76.81;100371.34;5055189;28;20033;-81
2022/04/23 06:55:27;;;;;;;32.00;24.92;;;;;;;10.63;76.62;100367.75;5053995;28;19928;-82
2022/04/23 06:57:52;;;;;;;31.20;23.77;;;;;;;10.79;76.39;100369.09;5065955;28;20055;-82
2022/04/23 07:00:18;;;;;;;28.37;21.87;;;;;;;11.82;74.84;100362.09;5073631;28;20063;-82
2022/04/23 07:02:43;;;;;;;28.17;22.27;;;;;;;13.73;65.57;100371.75;5066017;28;20029;-82
2022/04/23 07:05:08;;;;;;;30.37;23.60;;;;;;;14.46;61.95;100371.66;5053696;28;20475;-80
2022/04/23 07:07:34;;;;;;;27.93;22.43;;;;;;;15.24;59.37;100367.66;5053557;28;20032;-81
2022/04/23 07:09:59;;;;;;;29.57;22.20;;;;;;;15.41;57.73;100366.94;5052630;28;20036;-81
2022/04/23 07:12:24;;;;;;;28.53;21.63;;;;;;;15.45;59.62;100359.78;5053781;28;20356;-81
2022/04/23 07:14:50;;;;;;;26.93;20.30;;;;;;;15.44;58.99;100352.84;5059291;28;20029;-80
2022/04/23 07:17:15;;;;;;;26.47;20.27;;;;;;;15.25;60.62;100360.66;5072690;28;20116;-81
2022/04/23 07:19:41;;;;;;;25.97;19.67;;;;;;;14.67;60.93;100359.56;5073288;28;20024;-80
2022/04/23 07:22:07;;;;;;;25.40;19.07;;;;;;;14.25;62.40;100361.13;5073482;28;20066;-80
2022/04/23 07:24:33;;;;;;;26.75;19.55;;;;;;;13.78;63.36;100353.31;5072037;28;20052;-81
2022/04/23 07:26:59;;;;;;;27.03;20.90;;;;;;;13.21;64.71;100357.00;5073170;28;20075;-84
2022/04/23 07:29:24;;;;;;;26.93;20.37;;;;;;;13.02;65.98;100342.88;5073356;28;20480;-85
2022/04/23 07:31:49;;;;;;;25.43;18.97;;;;;;;12.95;66.72;100358.72;5071876;28;20376;-89
2022/04/23 07:39:44;;;;;;;27.88;21.67;;;;;;;12.49;67.09;100350.66;5072507;28;20093;-86
2022/04/23 07:42:09;;;;;;;27.42;20.30;;;;;;;12.52;67.80;100345.31;5072961;28;20020;-84
2022/04/23 07:44:34;;;;;;;25.20;19.47;;;;;;;12.72;67.54;100340.41;5072318;28;20028;-84
2022/04/23 07:47:00;;;;;;;27.00;20.10;;;;;;;12.78;67.58;100342.78;5072750;28;20469;-84
2022/04/23 07:49:25;;;;;;;27.63;20.33;;;;;;;12.86;66.84;100345.16;5073112;28;20100;-85
2022/04/23 07:51:51;;;;;;;27.07;20.40;;;;;;;12.89;66.27;100337.25;5061619;28;20025;-83
2022/04/23 07:54:16;;;;;;;27.67;21.53;;;;;;;12.88;65.86;100343.34;5052921;28;20411;-84
2022/04/23 07:56:41;;;;;;;27.87;22.13;;;;;;;12.91;65.33;100332.84;5052450;28;20036;-83
2022/04/23 07:59:07;;;;;;;29.17;21.97;;;;;;;12.91;65.64;100338.03;5052201;28;20017;-84
2022/04/23 08:01:33;;;;;;;27.93;21.37;;;;;;;12.95;65.28;100337.03;5068795;28;20500;-83
2022/04/23 08:04:02;;;;;;;27.53;20.60;;;;;;;13.03;65.12;100340.25;5066595;28;20047;-83
2022/04/23 08:06:31;;;;;;;26.67;20.70;;;;;;;13.05;64.82;100335.84;5064958;28;20480;-85
2022/04/23 08:08:56;;;;;;;27.40;19.85;;;;;;;13.08;65.20;100338.31;5072403;28;20067;-81
2022/04/23 08:11:24;;;;;;;26.20;20.03;;;;;;;13.08;64.39;100329.66;5072944;28;20021;-82
2022/04/23 08:13:52;;;;;;;25.88;19.25;;;;;;;13.19;65.64;100326.69;5072046;28;20424;-83
2022/04/23 08:16:18;;;;;;;25.98;19.48;;;;;;;13.31;64.53;100321.03;5073135;28;20017;-85
2022/04/23 08:18:43;;;;;;;27.27;20.60;;;;;;;13.36;63.26;100324.34;5072588;28;20545;-83
2022/04/23 08:21:08;;;;;;;25.87;20.00;;;;;;;13.46;63.50;100316.22;5071923;28;20066;-82
2022/04/23 08:23:34;;;;;;;26.37;20.53;;;;;;;13.43;62.24;100322.41;5072522;28;20040;-82
2022/04/23 08:26:03;;;;;;;28.27;21.03;;;;;;;13.49;62.53;100316.13;5072384;28;20028;-85
2022/04/23 08:31:12;;;;;;;26.58;20.25;;;;;;;13.63;61.72;100311.25;5072929;28;20086;-81
2022/04/23 08:36:22;;;;;;;25.67;18.95;;;;;;;13.92;61.69;100322.38;5054545;28;20444;-82
2022/04/23 08:38:47;;;;;;;27.37;19.73;;;;;;;14.08;60.80;100317.41;5055908;28;20120;-85
2022/04/23 08:41:13;;;;;;;25.60;18.90;;;;;;;14.20;59.86;100322.16;5055810;28;20110;-86
2022/04/23 08:43:41;;;;;;;25.63;19.07;;;;;;;14.27;59.36;100322.78;5068849;28;20036;-84
2022/04/23 08:46:07;;;;;;;24.85;19.10;;;;;;;14.29;59.74;100327.94;5059832;28;20424;-84
2022/04/23 08:48:42;;;;;;;25.37;18.80;;;;;;;14.34;59.21;100321.63;5055361;28;20032;-83
2022/04/23 08:51:12;;;;;;;26.75;20.48;;;;;;;14.39;57.73;100326.66;5060041;28;20117;-85
2022/04/23 08:53:41;;;;;;;23.48;17.58;;;;;;;14.58;59.76;100321.56;5075770;28;20031;-85
2022/04/23 08:56:08;;;;;;;25.35;18.17;;;;;;;14.77;59.15;100315.59;5075364;28;20036;-85
2022/04/23 08:58:34;;;;;;;23.23;16.58;;;;;;;14.91;59.19;100315.88;5056400;28;20033;-85
2022/04/23 09:00:59;;;;;;;28.07;20.90;;;;;;;14.69;58.28;100320.31;5055883;28;20036;-83
2022/04/23 09:03:24;;;;;;;24.97;18.67;;;;;;;14.87;58.72;100327.38;5055263;28;20036;-86
2022/04/23 09:05:53;;;;;;;24.90;18.97;;;;;;;14.95;57.53;100324.44;5055881;28;20105;-86
2022/04/23 09:08:19;;;;;;;27.83;22.05;;;;;;;14.81;57.36;100328.47;5056079;28;20040;-86
2022/04/23 09:10:56;;;;;;;26.93;21.30;;;;;;;14.70;57.90;100320.22;5074283;28;20029;-87
2022/04/23 09:13:25;;;;;;;26.05;20.58;;;;;;;14.77;58.49;100321.69;5075946;28;20020;-87
2022/04/23 09:24:51;;;;;;;27.42;22.30;;;;;;;14.55;58.38;100339.13;5074678;28;20059;-83
2022/04/23 09:27:16;;;;;;;28.23;22.55;;;;;;;14.60;59.26;100339.75;5075665;28;20020;-83
2022/04/23 09:29:58;;;;;;;27.77;21.73;;;;;;;14.74;58.39;100331.44;5072709;28;20041;-82
2022/04/23 09:32:23;;;;;;;29.27;22.65;;;;;;;14.78;57.30;100333.84;5063313;28;20381;-84
2022/04/23 09:35:03;;;;;;;26.47;20.23;;;;;;;14.90;58.40;100322.03;5055037;28;20040;-84
2022/04/23 09:38:11;;;;;;;25.00;19.13;;;;;;;15.02;58.31;100338.97;5054505;28;20048;-84
2022/04/23 09:40:27;;;;;;;28.02;22.85;;;;;;;15.01;57.10;100339.00;5063881;22;20049;-83
2022/04/23 09:42:56;;;;;;;26.40;21.70;;;;;;;15.18;56.99;100328.72;5055871;28;20527;-83
2022/04/23 09:45:21;;;;;;;28.35;22.80;;;;;;;15.23;57.13;100323.28;5054541;28;20025;-79
2022/04/23 09:47:47;;;;;;;27.10;22.07;;;;;;;15.29;56.69;100328.22;5054544;28;20029;-83
2022/04/23 09:50:16;;;;;;;26.97;22.33;;;;;;;15.46;57.29;100324.88;5070400;28;20082;-83
2022/04/23 09:52:42;;;;;;;26.38;20.92;;;;;;;15.77;56.31;100322.66;5074362;28;20032;-84
2022/04/23 09:55:08;;;;;;;;;;;;;;;15.99;54.95;100314.69;5075474;28;20055;-82
2022/04/23 09:57:34;;;;;;;28.65;23.25;;;;;;;16.30;55.00;100321.97;5074973;28;19920;-86
2022/04/23 09:59:59;;;;;;;27.00;22.37;;;;;;;16.57;54.27;100318.09;5066746;28;20029;-85
2022/04/23 10:02:25;;;;;;;27.33;23.97;;;;;;;16.67;52.77;100320.19;5055010;28;20036;-86
2022/04/23 10:04:56;;;;;;;26.75;21.75;;;;;;;16.68;54.01;100311.41;5055614;28;20389;-84
2022/04/23 10:07:25;;;;;;;25.27;20.63;;;;;;;16.85;53.60;100314.94;5074303;28;20429;-85
2022/04/23 10:09:51;;;;;;;25.95;21.48;;;;;;;16.92;52.56;100325.97;5066133;28;20032;-85
2022/04/23 10:12:19;;;;;;;26.20;22.13;;;;;;;16.61;52.47;100317.03;5055311;28;20039;-85
2022/04/23 10:14:56;;;;;;;24.52;19.75;;;;;;;16.77;53.56;100307.50;5074330;28;20035;-85
2022/04/23 10:17:24;;;;;;;25.17;19.42;;;;;;;16.88;53.82;100306.94;5074412;28;20066;-82
2022/04/23 10:19:49;;;;;;;27.40;22.48;;;;;;;16.89;52.30;100305.19;5073771;28;20024;-85
2022/04/23 10:22:32;;;;;;;26.40;21.33;;;;;;;16.90;51.41;100299.00;5074519;28;20131;-84
2022/04/23 10:25:36;;;;;;;24.75;19.60;;;;;;;17.09;52.12;100299.81;5072806;28;20040;-85
2022/04/23 10:28:03;;;;;;;28.88;24.45;;;;;;;17.03;50.11;100301.91;5072597;28;20101;-83
2022/04/23 10:30:31;;;;;;;29.33;25.60;;;;;;;16.70;51.33;100300.84;5075126;28;20029;-83
2022/04/23 10:32:56;;;;;;;26.60;21.80;;;;;;;17.03;52.88;100299.28;5076180;28;20472;-84
2022/04/23 10:35:21;;;;;;;28.93;24.40;;;;;;;17.14;51.29;100302.19;5073883;28;20064;-84
2022/04/23 10:37:50;;;;;;;27.57;23.23;;;;;;;17.04;50.97;100287.84;5074514;28;20031;-84
2022/04/23 10:40:22;;;;;;;26.42;22.17;;;;;;;17.09;52.17;100285.84;5075028;28;20373;-84
2022/04/23 10:43:06;;;;;;;26.30;22.08;;;;;;;17.34;52.25;100288.00;5061614;28;20049;-85
2022/04/23 10:45:32;;;;;;;27.40;22.90;;;;;;;17.29;50.41;100293.50;5054899;28;20358;-85
2022/04/23 10:48:23;;;;;;;25.63;21.30;;;;;;;17.37;51.44;100294.91;5054553;28;20055;-84
2022/04/23 10:51:05;;;;;;;28.60;23.90;;;;;;;17.09;49.93;100299.81;5062867;28;20048;-82
2022/04/23 10:53:41;;;;;;;28.90;24.58;;;;;;;17.15;51.38;100309.13;5054597;28;20035;-85
2022/04/23 10:56:07;;;;;;;29.80;25.13;;;;;;;16.78;51.07;100301.31;5053647;28;20029;-84
2022/04/23 10:58:33;;;;;;;27.20;22.52;;;;;;;16.81;51.86;100297.72;5053522;28;20049;-87
2022/04/23 11:01:20;;;;;;;26.93;22.53;;;;;;;17.02;51.65;100298.41;5053675;28;20052;-86
2022/04/23 11:03:55;;;;;;;27.42;22.70;;;;;;;17.24;50.84;100306.03;5053071;28;20017;-87
2022/04/23 11:12:23;;;;;;;26.63;21.67;;;;;;;17.26;50.39;100287.59;5053942;28;20123;-85
2022/04/23 11:14:56;;;;;;;29.08;24.60;;;;;;;16.93;50.68;100285.75;5053213;28;20369;-86
2022/04/23 11:17:49;;;;;;;28.85;24.08;;;;;;;16.80;50.81;100275.03;5053082;28;20354;-87
2022/04/23 11:20:26;;;;;;;28.65;23.80;;;;;;;16.77;50.51;100291.78;5068821;28;20059;-81
2022/04/23 11:22:51;;;;;;;26.73;21.23;;;;;;;17.01;51.32;100270.50;5072360;28;20367;-83
2022/04/23 11:25:16;;;;;;;25.03;20.00;;;;;;;17.37;50.92;100274.75;5071396;28;20585;-83
2022/04/23 11:27:48;;;;;;;25.10;19.87;;;;;;;17.66;51.16;100272.38;5073183;28;20028;-83
2022/04/23 11:30:13;;;;;;;27.52;22.75;;;;;;;17.89;49.34;100276.34;5072435;28;20507;-85
2022/04/23 11:32:41;;;;;;;29.73;23.07;;;;;;;17.75;48.40;100292.84;5072910;28;20107;-83
2022/04/23 11:35:07;;;;;;;29.02;22.60;;;;;;;17.79;49.69;100282.19;5073321;28;20021;-85
2022/04/23 11:37:35;;;;;;;27.92;23.10;;;;;;;17.90;47.71;100259.66;5072667;28;20024;-84
2022/04/23 11:40:23;;;;;;;28.00;21.83;;;;;;;18.19;48.04;100280.00;5072815;28;20503;-85